Time;durP1;ratioP1;P1;durP2;ratioP2;P2;SDS_P1;SDS_P2;PMS_P1;PMS_P2;Temp;Humidity;BMP_temperature;BMP_pressure;BME280_temperature;BME280_humidity;BME280_pressure;Samples;Min_cycle;Max_cycle;Signal;HPM_P1;HPM_P2
2022/09/07 00:02:22;;;;;;;9.90;7.20;;;;;;;18.13;70.16;100624.98;107902;1279;72540;-80
2022/09/07 00:04:49;;;;;;;9.60;7.10;;;;;;;18.10;70.40;100626.13;107615;1279;73951;-80
2022/09/07 00:07:16;;;;;;;9.70;7.60;;;;;;;18.06;70.70;100627.16;107557;1279;62070;-80
2022/09/07 00:09:43;;;;;;;8.70;7.50;;;;;;;18.02;70.98;100627.18;107537;1279;60449;-80
2022/09/07 00:12:09;;;;;;;9.80;7.70;;;;;;;17.98;71.10;100630.36;107723;1281;74568;-80
2022/09/07 00:14:36;;;;;;;11.20;7.90;;;;;;;17.96;71.32;100633.40;107963;1278;68995;-80
2022/09/07 00:17:03;;;;;;;10.40;8.00;;;;;;;17.94;71.56;100632.39;108004;1279;72239;-80
2022/09/07 00:19:30;;;;;;;10.70;8.40;;;;;;;17.92;71.74;100631.50;107934;1279;62391;-80
2022/09/07 00:21:57;;;;;;;9.80;8.60;;;;;;;17.91;71.91;100637.05;107874;1279;60044;-81
2022/09/07 00:24:23;;;;;;;8.80;7.90;;;;;;;17.90;72.08;100641.48;107789;1279;75089;-81
2022/09/07 00:26:53;;;;;;;9.70;7.90;;;;;;;17.89;72.21;100647.40;107986;1279;71772;-81
2022/09/07 00:29:20;;;;;;;11.70;8.00;;;;;;;17.86;72.43;100650.28;107807;1279;73846;-80
2022/09/07 00:31:47;;;;;;;9.90;8.20;;;;;;;17.86;72.42;100649.84;107851;1279;62074;-80
2022/09/07 00:34:14;;;;;;;9.80;7.90;;;;;;;17.85;72.58;100650.70;107783;1279;61462;-80
2022/09/07 00:36:41;;;;;;;9.80;8.10;;;;;;;17.83;72.70;100653.45;107544;1279;74859;-81
2022/09/07 00:39:08;;;;;;;11.10;8.00;;;;;;;17.81;72.82;100654.23;107944;1279;72754;-80
2022/09/07 00:41:35;;;;;;;9.00;8.10;;;;;;;17.79;73.04;100648.67;107661;1279;72913;-80
2022/09/07 00:44:40;;;;;;;12.00;8.10;;;;;;;17.76;73.19;100641.83;107952;1278;62091;-80
2022/09/07 00:47:20;;;;;;;9.90;7.90;;;;;;;17.72;73.34;100640.26;107999;1279;60010;-80
2022/09/07 00:49:53;;;;;;;10.00;8.40;;;;;;;17.67;73.45;100636.27;107985;1279;74247;-80
2022/09/07 00:52:23;;;;;;;10.20;7.80;;;;;;;17.62;73.75;100628.56;107828;1279;72859;-80
2022/09/07 00:54:55;;;;;;;9.90;8.20;;;;;;;17.60;74.09;100630.20;107826;1279;73753;-80
2022/09/07 00:57:22;;;;;;;13.00;8.30;;;;;;;17.57;74.24;100626.90;107769;1279;62209;-80
2022/09/07 00:59:51;;;;;;;13.70;8.60;;;;;;;17.56;74.57;100624.45;107970;1279;60321;-80
2022/09/07 01:02:19;;;;;;;10.70;8.40;;;;;;;17.55;74.92;100627.31;107965;1279;74159;-80
2022/09/07 01:04:50;;;;;;;11.60;8.60;;;;;;;17.54;75.07;100630.63;107713;1279;73665;-80
2022/09/07 01:07:17;;;;;;;9.10;7.90;;;;;;;17.53;75.21;100629.36;107559;1280;73053;-80
2022/09/07 01:09:46;;;;;;;9.10;8.20;;;;;;;17.52;75.30;100627.13;107495;1281;62680;-80
2022/09/07 01:12:13;;;;;;;10.00;8.40;;;;;;;17.51;75.37;100622.94;107563;1279;60525;-81
2022/09/07 01:14:44;;;;;;;10.30;8.70;;;;;;;17.51;75.54;100612.58;107703;1279;73285;-81
2022/09/07 01:17:14;;;;;;;10.00;9.00;;;;;;;17.51;75.70;100611.80;107923;1278;71101;-80
2022/09/07 01:20:05;;;;;;;10.20;9.00;;;;;;;17.49;76.13;100612.77;107945;1279;73857;-80
2022/09/07 01:22:56;;;;;;;9.40;8.40;;;;;;;17.46;76.17;100611.23;107720;1281;61491;-80
2022/09/07 01:25:46;;;;;;;9.50;8.40;;;;;;;17.45;76.30;100606.58;107919;1279;62357;-81
2022/09/07 01:28:20;;;;;;;12.80;9.00;;;;;;;17.42;76.47;100604.09;107619;1281;75716;-80
2022/09/07 01:30:50;;;;;;;10.70;9.00;;;;;;;17.42;76.44;100602.36;107941;1279;71327;-80
2022/09/07 01:33:33;;;;;;;10.20;9.10;;;;;;;17.42;76.62;100599.14;107879;1280;74462;-80
2022/09/07 01:36:24;;;;;;;10.30;8.70;;;;;;;17.43;76.81;100604.96;107681;1281;62895;-80
2022/09/07 01:38:57;;;;;;;11.70;9.80;;;;;;;17.41;76.99;100606.08;107985;1279;61814;-80
2022/09/07 01:41:33;;;;;;;12.30;10.10;;;;;;;17.40;77.18;100609.23;107746;1279;75520;-80
2022/09/07 01:44:05;;;;;;;13.00;9.40;;;;;;;17.41;77.25;100610.88;107946;1279;71569;-80
2022/09/07 01:47:09;;;;;;;12.10;9.80;;;;;;;17.40;77.51;100613.56;107573;1281;73879;-79
2022/09/07 01:49:47;;;;;;;12.00;9.70;;;;;;;17.40;77.51;100607.83;107754;1281;62516;-80
2022/09/07 01:52:21;;;;;;;10.90;9.80;;;;;;;17.40;77.83;100602.83;107728;1280;60294;-80
2022/09/07 01:54:54;;;;;;;11.60;10.40;;;;;;;17.38;77.88;100595.17;107575;1279;74578;-80
2022/09/07 01:57:27;;;;;;;12.10;10.40;;;;;;;17.38;78.25;100592.75;107976;1279;71381;-80
2022/09/07 02:00:08;;;;;;;11.60;10.20;;;;;;;17.37;78.39;100585.16;107941;1279;76123;-79
2022/09/07 02:03:03;;;;;;;11.10;10.00;;;;;;;17.37;78.48;100584.48;107877;1278;62299;-79
2022/09/07 02:05:41;;;;;;;12.00;10.30;;;;;;;17.37;78.50;100585.59;107830;1279;61395;-79
2022/09/07 02:08:13;;;;;;;11.00;9.90;;;;;;;17.35;78.47;100577.60;107937;1279;75417;-79
2022/09/07 02:10:58;;;;;;;13.30;10.20;;;;;;;17.34;78.57;100577.80;107950;1279;71943;-79
2022/09/07 02:13:36;;;;;;;11.60;10.10;;;;;;;17.32;78.56;100581.80;107672;1279;74046;-79
2022/09/07 02:16:08;;;;;;;11.00;9.90;;;;;;;17.30;78.62;100580.98;107966;1279;61568;-79
2022/09/07 02:18:44;;;;;;;11.70;10.40;;;;;;;17.28;78.67;100574.29;108136;1279;60526;-78
2022/09/07 02:21:14;;;;;;;12.10;10.40;;;;;;;17.27;78.92;100577.89;107995;1280;74328;-79
2022/09/07 02:23:49;;;;;;;11.80;10.60;;;;;;;17.25;78.94;100577.30;107780;1279;71246;-79
2022/09/07 02:26:21;;;;;;;10.90;9.80;;;;;;;17.24;79.06;100577.52;107993;1279;73138;-79
2022/09/07 02:28:48;;;;;;;11.70;10.50;;;;;;;17.23;79.20;100575.25;107780;1279;62214;-79
2022/09/07 02:31:14;;;;;;;12.00;10.60;;;;;;;17.22;79.38;100571.88;107755;1279;60283;-79
2022/09/07 02:33:42;;;;;;;11.70;10.40;;;;;;;17.21;79.41;100568.64;107738;1281;74990;-79
2022/09/07 02:36:11;;;;;;;12.40;11.20;;;;;;;17.19;79.58;100566.02;107402;1281;72471;-80
2022/09/07 02:38:38;;;;;;;11.80;10.40;;;;;;;17.17;79.81;100567.08;107532;1281;72227;-80
2022/09/07 02:41:25;;;;;;;12.10;10.80;;;;;;;17.13;80.03;100566.81;107926;1279;62068;-79
2022/09/07 02:43:52;;;;;;;12.10;10.80;;;;;;;17.09;80.17;100560.79;107801;1279;60610;-80
2022/09/07 02:46:43;;;;;;;12.50;11.30;;;;;;;17.06;80.43;100564.02;107739;1279;72877;-80
2022/09/07 02:49:31;;;;;;;14.20;11.60;;;;;;;17.02;80.91;100552.48;107887;1279;71394;-81
2022/09/07 02:51:58;;;;;;;13.00;11.20;;;;;;;17.01;80.93;100550.04;108008;1279;73080;-81
2022/09/07 02:54:31;;;;;;;14.50;11.20;;;;;;;17.01;81.14;100548.53;107793;1279;58487;-81
2022/09/07 02:57:54;;;;;;;12.20;10.90;;;;;;;17.01;81.25;100549.56;107965;1279;59276;-81
2022/09/07 03:00:24;;;;;;;13.10;11.70;;;;;;;17.02;81.62;100547.70;107066;1285;74291;-80
2022/09/07 03:02:57;;;;;;;12.50;11.20;;;;;;;17.04;81.57;100552.27;107033;1286;72166;-80
2022/09/07 03:05:41;;;;;;;13.00;11.70;;;;;;;17.05;81.55;100546.48;107649;1279;72490;-80
2022/09/07 03:08:14;;;;;;;13.80;11.90;;;;;;;17.05;81.56;100539.88;107651;1280;62744;-80
2022/09/07 03:10:42;;;;;;;12.90;11.10;;;;;;;17.05;81.71;100534.52;107550;1279;61901;-79
2022/09/07 03:13:18;;;;;;;12.40;11.20;;;;;;;17.05;82.01;100528.02;107692;1279;75383;-79
2022/09/07 03:15:45;;;;;;;12.40;11.20;;;;;;;17.05;82.07;100518.70;107797;1280;71516;-79
2022/09/07 03:18:12;;;;;;;13.50;11.30;;;;;;;17.05;82.29;100518.44;107750;1279;74234;-80
2022/09/07 03:20:39;;;;;;;13.50;11.90;;;;;;;17.06;82.35;100515.29;107642;1279;61971;-79
2022/09/07 03:23:06;;;;;;;12.40;10.80;;;;;;;17.08;82.41;100517.92;107836;1279;62287;-79
2022/09/07 03:25:33;;;;;;;11.80;10.50;;;;;;;17.10;82.53;100533.69;107735;1280;74766;-79
2022/09/07 03:28:00;;;;;;;12.30;11.00;;;;;;;17.11;82.90;100589.54;107723;1279;70496;-79
2022/09/07 03:30:26;;;;;;;12.20;10.70;;;;;;;17.07;84.43;100672.92;107940;1279;73204;-79
2022/09/07 03:32:53;;;;;;;13.90;12.50;;;;;;;17.09;84.67;100646.88;107707;1279;62314;-79
2022/09/07 03:35:20;;;;;;;13.50;12.00;;;;;;;17.16;83.99;100623.33;107907;1279;61994;-79
2022/09/07 03:37:47;;;;;;;12.70;11.40;;;;;;;17.23;83.50;100594.77;107565;1279;74308;-77
2022/09/07 03:40:15;;;;;;;13.30;11.80;;;;;;;17.30;83.09;100607.91;107928;1279;71525;-79
2022/09/07 03:42:42;;;;;;;13.40;11.50;;;;;;;17.37;82.76;100597.92;107559;1279;72968;-80
2022/09/07 03:45:09;;;;;;;12.00;10.40;;;;;;;17.45;82.37;100581.75;107544;1280;63700;-79
2022/09/07 03:47:37;;;;;;;11.90;10.70;;;;;;;17.50;82.34;100584.52;107724;1279;60578;-80
2022/09/07 03:50:04;;;;;;;12.50;11.20;;;;;;;17.51;82.17;100586.67;107913;1279;74199;-79
2022/09/07 03:52:31;;;;;;;13.10;11.70;;;;;;;17.54;82.12;100589.69;107460;1280;71509;-80
2022/09/07 03:54:58;;;;;;;13.50;12.20;;;;;;;17.56;81.72;100601.02;107698;1279;74323;-80
2022/09/07 03:57:24;;;;;;;12.60;11.30;;;;;;;17.61;81.64;100601.30;107730;1279;63387;-80
2022/09/07 03:59:51;;;;;;;14.10;11.00;;;;;;;17.65;81.42;100594.02;107879;1279;60815;-80
2022/09/07 04:02:18;;;;;;;13.60;11.10;;;;;;;17.69;81.11;100598.69;107710;1280;74143;-80
2022/09/07 04:04:45;;;;;;;14.80;11.30;;;;;;;17.72;81.00;100599.27;107841;1279;72400;-79
2022/09/07 04:07:12;;;;;;;13.50;11.50;;;;;;;17.75;80.79;100596.46;107938;1279;72929;-79
2022/09/07 04:09:39;;;;;;;12.00;10.80;;;;;;;17.78;80.76;100608.79;107951;1280;62372;-79
2022/09/07 04:12:06;;;;;;;15.10;12.10;;;;;;;17.80;80.87;100615.06;108258;1279;60543;-79
2022/09/07 04:14:33;;;;;;;13.80;12.50;;;;;;;17.80;80.87;100619.46;108190;1279;74176;-79
2022/09/07 04:17:00;;;;;;;13.80;12.10;;;;;;;17.81;81.04;100618.98;108064;1279;71571;-81
2022/09/07 04:19:30;;;;;;;15.70;13.30;;;;;;;17.82;81.20;100620.64;107958;1279;72816;-79
2022/09/07 04:21:57;;;;;;;14.40;12.80;;;;;;;17.82;81.47;100623.73;106407;1280;1455026;-78
2022/09/07 04:24:24;;;;;;;14.60;13.10;;;;;;;17.80;81.92;100636.70;107917;1279;59364;-78
2022/09/07 04:26:51;;;;;;;14.70;13.00;;;;;;;17.77;82.47;100635.04;107638;1280;75255;-77
2022/09/07 04:29:18;;;;;;;15.90;13.20;;;;;;;17.72;82.80;100622.17;107750;1279;73030;-78
2022/09/07 04:31:44;;;;;;;19.10;14.20;;;;;;;17.68;83.13;100616.59;107692;1279;73380;-79
2022/09/07 04:34:12;;;;;;;17.90;15.00;;;;;;;17.63;83.76;100598.64;107967;1279;61077;-78
2022/09/07 04:36:39;;;;;;;15.80;14.20;;;;;;;17.59;84.14;100595.42;107943;1279;61737;-78
2022/09/07 04:39:05;;;;;;;12.20;11.00;;;;;;;17.56;84.72;100581.80;107988;1279;74259;-78
2022/09/07 04:41:43;;;;;;;16.80;15.00;;;;;;;17.54;85.46;100578.59;107981;1279;72616;-79
2022/09/07 04:44:14;;;;;;;16.40;14.80;;;;;;;17.53;85.72;100576.73;107859;1280;73489;-80
2022/09/07 04:46:42;;;;;;;18.10;16.10;;;;;;;17.55;86.09;100583.92;107785;1279;63499;-80
2022/09/07 04:49:10;;;;;;;19.30;15.60;;;;;;;17.56;86.28;100587.33;107776;1278;60056;-80
2022/09/07 04:51:38;;;;;;;18.40;16.10;;;;;;;17.57;86.53;100590.23;107533;1280;74296;-80
2022/09/07 04:54:05;;;;;;;19.30;16.40;;;;;;;17.56;86.73;100596.13;107418;1281;71411;-80
2022/09/07 04:56:33;;;;;;;19.30;17.30;;;;;;;17.54;86.98;100609.01;107774;1281;72863;-80
2022/09/07 04:59:00;;;;;;;20.20;16.80;;;;;;;17.51;87.13;100620.17;107668;1280;63880;-80
2022/09/07 05:01:27;;;;;;;19.30;17.30;;;;;;;17.47;87.39;100628.55;107912;1278;60866;-80
2022/09/07 05:03:54;;;;;;;19.10;17.10;;;;;;;17.44;87.60;100630.61;107677;1281;74590;-82
2022/09/07 05:06:22;;;;;;;17.50;15.60;;;;;;;17.41;87.95;100634.30;107656;1280;72590;-78
2022/09/07 05:08:52;;;;;;;20.90;16.70;;;;;;;17.35;88.25;100637.63;107944;1280;73133;-78
2022/09/07 05:11:21;;;;;;;18.40;16.50;;;;;;;17.31;88.45;100634.27;107501;1280;62334;-77
2022/09/07 05:13:56;;;;;;;19.50;17.40;;;;;;;17.30;88.75;100630.55;107586;1279;60474;-77
2022/09/07 05:16:24;;;;;;;20.10;17.90;;;;;;;17.31;89.00;100631.23;107799;1279;74133;-78
2022/09/07 05:18:53;;;;;;;19.10;17.10;;;;;;;17.36;89.29;100631.89;107638;1280;72639;-78
2022/09/07 05:21:23;;;;;;;18.80;16.90;;;;;;;17.40;89.24;100636.73;107855;1279;74226;-77
2022/09/07 05:23:52;;;;;;;18.10;16.30;;;;;;;17.44;89.01;100635.19;107541;1280;61230;-77
2022/09/07 05:26:20;;;;;;;20.40;16.50;;;;;;;17.45;89.15;100630.84;107715;1281;60686;-78
2022/09/07 05:28:48;;;;;;;19.40;16.00;;;;;;;17.48;89.14;100620.73;107614;1281;74077;-78
2022/09/07 05:31:19;;;;;;;19.20;16.30;;;;;;;17.53;89.11;100613.83;107562;1279;71995;-75
2022/09/07 05:33:48;;;;;;;18.60;16.40;;;;;;;17.56;89.26;100607.52;107727;1281;74058;-78
2022/09/07 05:36:36;;;;;;;18.70;16.60;;;;;;;17.58;89.28;100614.31;107657;1279;61112;-78
2022/09/07 05:39:04;;;;;;;18.20;16.30;;;;;;;17.62;89.43;100607.77;107687;1280;61270;-78
2022/09/07 05:41:31;;;;;;;18.70;16.20;;;;;;;17.66;89.41;100597.65;107644;1280;74318;-78
2022/09/07 05:43:58;;;;;;;20.40;17.40;;;;;;;17.71;89.47;100588.30;107689;1281;71599;-78
2022/09/07 05:46:45;;;;;;;24.20;21.50;;;;;;;17.74;89.41;100588.39;107566;1280;73566;-77
2022/09/07 05:49:12;;;;;;;20.20;18.20;;;;;;;17.78;89.54;100583.67;107729;1281;61471;-77
2022/09/07 05:51:39;;;;;;;20.70;18.50;;;;;;;17.81;89.46;100575.80;107577;1279;62576;-76
2022/09/07 05:54:07;;;;;;;20.60;16.70;;;;;;;17.82;89.53;100569.25;107902;1280;75199;-76
2022/09/07 05:56:35;;;;;;;20.10;17.00;;;;;;;17.81;89.37;100566.40;107644;1281;71417;-76
2022/09/07 05:59:02;;;;;;;19.10;17.10;;;;;;;17.80;89.37;100567.67;107512;1281;72665;-78
2022/09/07 06:01:30;;;;;;;18.60;16.60;;;;;;;17.81;89.59;100563.08;107587;1281;62092;-79
2022/09/07 06:04:00;;;;;;;18.70;16.90;;;;;;;17.80;89.47;100561.94;108114;1279;61898;-81
2022/09/07 06:06:27;;;;;;;20.40;17.20;;;;;;;17.80;89.62;100562.96;107937;1281;74618;-79
2022/09/07 06:08:56;;;;;;;18.60;16.80;;;;;;;17.82;89.85;100562.09;107721;1281;70619;-79
2022/09/07 06:11:24;;;;;;;19.90;17.50;;;;;;;17.83;89.88;100551.19;108016;1280;73400;-80
2022/09/07 06:13:53;;;;;;;21.30;18.20;;;;;;;17.84;89.99;100541.48;108273;1281;62066;-80
2022/09/07 06:16:20;;;;;;;18.70;16.70;;;;;;;17.85;89.99;100536.23;108005;1281;59036;-80
2022/09/07 06:18:48;;;;;;;19.00;16.50;;;;;;;17.84;89.90;100532.31;108000;1280;74842;-81
2022/09/07 06:21:18;;;;;;;19.60;16.70;;;;;;;17.82;89.93;100515.73;108097;1280;71432;-80
2022/09/07 06:23:46;;;;;;;25.20;22.50;;;;;;;17.81;90.16;100504.27;108023;1281;73992;-80
2022/09/07 06:26:15;;;;;;;18.80;17.00;;;;;;;17.82;90.41;100489.61;107876;1281;62847;-80
2022/09/07 06:28:45;;;;;;;19.50;17.50;;;;;;;17.87;90.34;100496.36;108088;1280;61206;-80
2022/09/07 06:31:17;;;;;;;18.90;16.40;;;;;;;17.92;90.39;100499.14;107881;1279;72715;-79
2022/09/07 06:33:46;;;;;;;17.70;15.80;;;;;;;18.00;90.33;100507.08;108244;1279;70139;-79
2022/09/07 06:36:16;;;;;;;18.30;15.70;;;;;;;18.08;90.08;100500.28;107886;1281;73051;-80
2022/09/07 06:38:43;;;;;;;17.40;15.60;;;;;;;18.15;89.93;100492.41;107895;1281;62173;-80
2022/09/07 06:41:14;;;;;;;16.00;14.20;;;;;;;18.24;89.75;100503.42;108099;1281;60939;-81
2022/09/07 06:44:02;;;;;;;16.80;14.20;;;;;;;18.27;89.88;100510.97;108347;1280;74433;-79
2022/09/07 06:46:29;;;;;;;16.20;14.60;;;;;;;18.29;89.58;100507.20;108197;1279;71600;-78
2022/09/07 06:49:16;;;;;;;15.90;14.30;;;;;;;18.37;89.68;100497.02;108104;1279;71466;-78
2022/09/07 06:51:42;;;;;;;16.30;14.60;;;;;;;18.44;89.45;100492.95;107915;1279;62088;-78
2022/09/07 06:54:09;;;;;;;15.40;13.90;;;;;;;18.49;89.33;100481.33;107975;1280;58378;-78
2022/09/07 06:56:56;;;;;;;15.10;13.50;;;;;;;18.53;89.05;100486.70;107964;1280;73865;-75
2022/09/07 06:59:23;;;;;;;14.50;13.10;;;;;;;18.55;88.84;100482.63;107634;1280;71301;-78
2022/09/07 07:01:51;;;;;;;15.10;13.70;;;;;;;18.57;88.54;100488.02;108071;1281;74704;-80
2022/09/07 07:04:19;;;;;;;14.50;13.00;;;;;;;18.61;88.33;100489.77;108313;1279;62202;-81
2022/09/07 07:06:48;;;;;;;15.00;13.50;;;;;;;18.67;88.16;100493.99;108263;1280;58212;-80
2022/09/07 07:09:16;;;;;;;13.70;12.30;;;;;;;18.75;87.91;100498.42;108058;1281;73071;-77
2022/09/07 07:11:46;;;;;;;14.80;13.30;;;;;;;18.74;87.76;100518.30;108455;1279;71605;-78
2022/09/07 07:14:14;;;;;;;15.10;13.40;;;;;;;18.82;87.60;100534.71;108201;1280;72561;-78
2022/09/07 07:16:40;;;;;;;14.70;12.00;;;;;;;18.88;87.72;100541.32;108137;1280;63194;-79
2022/09/07 07:19:08;;;;;;;15.20;13.50;;;;;;;18.94;87.65;100542.75;108261;1279;61986;-79
2022/09/07 07:21:35;;;;;;;15.90;14.30;;;;;;;19.05;87.54;100545.89;108224;1279;74118;-78
2022/09/07 07:24:22;;;;;;;14.30;12.80;;;;;;;19.22;87.29;100554.86;107841;1279;72608;-79
2022/09/07 07:26:48;;;;;;;14.80;13.40;;;;;;;19.31;86.79;100560.61;108053;1280;74155;-79
2022/09/07 07:29:15;;;;;;;14.80;13.30;;;;;;;19.41;86.39;100567.48;108235;1279;62658;-80
2022/09/07 07:31:45;;;;;;;14.10;12.70;;;;;;;19.53;85.69;100578.03;108407;1279;58822;-81
2022/09/07 07:34:12;;;;;;;14.10;12.80;;;;;;;19.68;85.57;100587.39;108099;1280;75077;-80
2022/09/07 07:36:39;;;;;;;15.10;13.60;;;;;;;19.78;84.77;100594.11;108172;1278;70035;-79
2022/09/07 07:39:06;;;;;;;14.10;12.80;;;;;;;19.88;84.92;100595.44;108112;1279;72743;-79
2022/09/07 07:41:33;;;;;;;17.20;15.50;;;;;;;20.04;84.88;100597.52;108120;1279;62951;-79
2022/09/07 07:44:20;;;;;;;13.60;12.20;;;;;;;20.26;84.58;100599.92;107839;1279;59329;-80
2022/09/07 07:46:49;;;;;;;13.00;11.80;;;;;;;20.43;83.48;100599.48;108149;1279;75453;-79
2022/09/07 07:49:17;;;;;;;13.00;11.60;;;;;;;20.55;82.00;100602.88;107881;1279;71254;-80
2022/09/07 07:51:44;;;;;;;17.80;15.90;;;;;;;20.64;81.63;100603.36;108189;1279;72819;-80
2022/09/07 07:54:38;;;;;;;13.70;11.50;;;;;;;20.80;81.26;100603.14;108351;1279;61078;-81
2022/09/07 07:57:06;;;;;;;11.90;10.70;;;;;;;20.93;80.73;100597.58;108111;1281;61456;-80
2022/09/07 07:59:34;;;;;;;11.80;10.60;;;;;;;21.07;80.34;100597.80;108415;1279;75555;-81
2022/09/07 08:02:03;;;;;;;12.00;10.60;;;;;;;21.17;79.60;100597.88;107772;1281;71171;-79
2022/09/07 08:04:49;;;;;;;11.40;10.20;;;;;;;21.27;79.39;100599.91;107912;1279;73692;-81
2022/09/07 08:07:45;;;;;;;10.40;9.10;;;;;;;21.38;78.37;100602.02;108068;1279;62446;-83
2022/09/07 08:10:27;;;;;;;10.30;9.30;;;;;;;21.52;77.91;100598.88;108117;1279;60583;-81
2022/09/07 08:12:54;;;;;;;10.40;9.20;;;;;;;21.66;78.00;100597.50;108377;1279;71762;-81
2022/09/07 08:15:20;;;;;;;12.00;10.20;;;;;;;21.77;77.02;100599.60;108290;1279;70282;-81
2022/09/07 08:17:48;;;;;;;10.60;9.50;;;;;;;21.87;76.88;100597.97;107973;1278;72676;-81
2022/09/07 08:20:15;;;;;;;10.30;9.30;;;;;;;21.93;75.68;100602.66;108127;1279;63164;-81
2022/09/07 08:22:42;;;;;;;10.30;9.10;;;;;;;21.99;75.16;100606.30;107638;1277;60141;-78
2022/09/07 08:25:09;;;;;;;11.10;9.00;;;;;;;22.06;74.48;100604.00;107926;1279;75667;-81
2022/09/07 08:27:35;;;;;;;9.80;8.40;;;;;;;22.13;74.29;100604.66;108228;1279;72190;-81
2022/09/07 08:30:02;;;;;;;11.50;8.70;;;;;;;22.16;73.55;100607.15;107845;1281;72667;-81
2022/09/07 08:32:29;;;;;;;10.10;9.10;;;;;;;22.20;73.44;100606.59;108079;1280;62219;-81
2022/09/07 08:34:57;;;;;;;11.40;9.40;;;;;;;22.35;73.98;100608.11;108076;1278;60669;-78
2022/09/07 08:37:25;;;;;;;9.80;8.70;;;;;;;22.53;73.82;100603.91;108176;1280;75989;-81
2022/09/07 08:39:51;;;;;;;12.20;9.50;;;;;;;22.67;72.66;100598.67;108160;1279;71431;-81
2022/09/07 08:42:25;;;;;;;10.50;8.60;;;;;;;22.75;72.17;100594.25;108201;1280;71540;-79
2022/09/07 08:45:04;;;;;;;10.30;9.20;;;;;;;22.82;71.88;100594.41;108234;1279;63463;-79
2022/09/07 08:47:35;;;;;;;9.80;8.80;;;;;;;22.94;71.67;100592.98;108347;1279;60557;-79
2022/09/07 08:50:10;;;;;;;10.20;8.60;;;;;;;23.07;71.58;100587.52;108421;1279;74147;-79
2022/09/07 08:52:46;;;;;;;9.20;8.20;;;;;;;23.19;69.93;100587.92;108435;1279;71556;-80
2022/09/07 08:55:17;;;;;;;9.20;8.30;;;;;;;23.18;69.17;100589.16;108225;1279;71638;-79
2022/09/07 08:57:59;;;;;;;9.90;8.90;;;;;;;23.18;68.96;100592.46;108411;1279;62807;-79
2022/09/07 09:00:26;;;;;;;8.80;7.90;;;;;;;23.18;69.47;100591.55;108208;1281;61575;-81
2022/09/07 09:02:53;;;;;;;11.80;8.50;;;;;;;23.28;69.09;100586.40;108341;1279;74105;-80
2022/09/07 09:06:19;;;;;;;9.60;7.90;;;;;;;23.40;69.12;100582.84;108232;1279;71356;-80
2022/09/07 09:09:15;;;;;;;9.50;8.00;;;;;;;23.52;68.87;100587.77;108249;1279;72373;-79
2022/09/07 09:12:15;;;;;;;12.00;9.00;;;;;;;23.64;68.31;100590.30;108234;1279;61997;-79
2022/09/07 09:15:13;;;;;;;8.40;7.60;;;;;;;23.72;67.17;100590.19;108013;1279;61763;-80
2022/09/07 09:17:52;;;;;;;7.90;7.10;;;;;;;23.82;67.28;100588.13;108072;1279;73243;-79
2022/09/07 09:20:22;;;;;;;9.80;7.90;;;;;;;23.98;67.02;100592.30;108028;1279;70631;-79
2022/09/07 09:22:53;;;;;;;14.00;12.50;;;;;;;24.06;66.18;100590.33;108018;1279;73846;-79
2022/09/07 09:25:27;;;;;;;9.70;8.20;;;;;;;24.08;65.92;100587.29;107633;1279;63213;-79
2022/09/07 09:27:54;;;;;;;8.30;7.40;;;;;;;24.14;66.07;100591.69;108042;1279;60344;-78
2022/09/07 09:30:23;;;;;;;7.40;6.70;;;;;;;24.28;65.81;100591.07;108056;1279;73499;-79
2022/09/07 09:33:10;;;;;;;10.10;8.00;;;;;;;24.41;65.48;100591.45;108378;1279;70008;-79
2022/09/07 09:35:39;;;;;;;8.60;7.20;;;;;;;24.51;64.42;100586.88;108473;1279;72900;-79
2022/09/07 09:38:28;;;;;;;6.20;5.60;;;;;;;24.58;64.10;100586.79;108305;1279;63378;-79
2022/09/07 09:40:57;;;;;;;7.50;5.90;;;;;;;24.61;63.37;100581.42;108306;1279;62445;-78
2022/09/07 09:43:28;;;;;;;8.30;6.60;;;;;;;24.69;63.71;100581.24;108159;1279;75547;-78
2022/09/07 09:45:56;;;;;;;6.60;5.90;;;;;;;24.76;62.45;100576.89;108012;1279;71223;-79
2022/09/07 09:48:40;;;;;;;9.00;7.00;;;;;;;24.85;62.63;100577.05;107983;1278;73272;-79
2022/09/07 09:51:08;;;;;;;7.30;6.60;;;;;;;24.97;62.22;100573.34;108326;1279;61413;-79
2022/09/07 09:54:33;;;;;;;7.10;5.80;;;;;;;25.11;61.86;100570.55;108096;1279;59296;-79
2022/09/07 09:57:00;;;;;;;7.30;5.50;;;;;;;25.27;61.69;100566.95;108246;1279;74630;-81
2022/09/07 09:59:30;;;;;;;6.20;5.60;;;;;;;25.35;60.98;100567.41;107806;1279;71114;-79
2022/09/07 10:02:32;;;;;;;6.80;5.40;;;;;;;25.50;61.01;100566.60;107705;1279;72925;-79
2022/09/07 10:05:40;;;;;;;5.10;4.00;;;;;;;25.58;58.81;100561.89;107904;1279;63598;-79
2022/09/07 10:08:18;;;;;;;6.50;4.90;;;;;;;25.55;58.23;100560.48;107975;1279;60060;-79
2022/09/07 10:11:06;;;;;;;6.70;5.50;;;;;;;25.66;58.92;100562.46;108191;1279;73137;-79
2022/09/07 10:13:37;;;;;;;6.00;5.30;;;;;;;25.77;58.64;100562.08;108334;1279;71873;-79
2022/09/07 10:16:08;;;;;;;7.10;5.40;;;;;;;25.89;58.92;100568.50;108320;1281;73122;-79
2022/09/07 10:18:40;;;;;;;8.10;4.90;;;;;;;26.03;57.66;100565.10;108081;1279;60809;-81
2022/09/07 10:21:22;;;;;;;6.30;5.50;;;;;;;26.17;57.58;100569.15;108149;1281;60062;-80
2022/09/07 10:23:53;;;;;;;7.90;6.90;;;;;;;26.21;56.63;100567.92;108438;1279;72864;-80
2022/09/07 10:26:27;;;;;;;5.70;4.80;;;;;;;26.19;56.49;100568.20;108487;1279;69565;-79
2022/09/07 10:29:16;;;;;;;6.80;4.90;;;;;;;26.18;56.65;100566.33;108383;1279;70742;-80
2022/09/07 10:31:56;;;;;;;5.90;4.80;;;;;;;26.22;56.40;100568.19;108377;1279;59278;-79
2022/09/07 10:34:56;;;;;;;5.90;4.80;;;;;;;26.28;56.24;100563.59;108361;1279;60723;-80
2022/09/07 10:37:43;;;;;;;6.20;5.20;;;;;;;26.41;56.47;100568.60;108394;1279;75383;-80
2022/09/07 10:40:23;;;;;;;5.40;4.90;;;;;;;26.50;56.12;100568.58;108464;1279;72260;-81
2022/09/07 10:43:31;;;;;;;5.70;4.70;;;;;;;26.51;55.39;100563.09;108310;1279;72387;-82
2022/09/07 10:46:20;;;;;;;6.30;4.40;;;;;;;26.68;56.52;100556.98;108091;1279;59298;-81
2022/09/07 10:49:15;;;;;;;5.30;3.70;;;;;;;26.79;55.05;100547.56;108052;1278;59275;-80
2022/09/07 10:52:02;;;;;;;4.10;3.50;;;;;;;26.87;54.78;100548.03;108037;1279;74526;-79
2022/09/07 10:54:54;;;;;;;5.20;4.00;;;;;;;26.94;54.23;100546.16;107642;1279;71256;-79
2022/09/07 10:57:26;;;;;;;4.30;3.10;;;;;;;27.09;53.88;100543.27;108095;1279;74283;-79
2022/09/07 11:00:13;;;;;;;4.50;3.50;;;;;;;27.17;53.51;100543.30;108073;1279;61276;-79
2022/09/07 11:02:54;;;;;;;4.40;3.60;;;;;;;27.23;53.01;100543.95;108027;1279;60391;-79
2022/09/07 11:06:06;;;;;;;5.90;3.70;;;;;;;27.30;52.55;100543.71;107979;1279;73902;-78
2022/09/07 11:08:42;;;;;;;4.00;3.10;;;;;;;27.40;53.04;100543.81;107945;1279;73143;-77
2022/09/07 11:11:40;;;;;;;5.00;3.40;;;;;;;27.62;52.10;100538.73;107929;1280;73923;-77
2022/09/07 11:14:31;;;;;;;6.20;3.10;;;;;;;27.79;52.53;100532.95;108002;1279;59648;-76
2022/09/07 11:17:01;;;;;;;4.80;3.20;;;;;;;28.05;51.65;100535.20;108040;1277;61587;-78
2022/09/07 11:19:39;;;;;;;6.10;4.10;;;;;;;28.29;51.53;100537.51;107884;1279;74938;-79
2022/09/07 11:22:31;;;;;;;4.90;3.40;;;;;;;28.46;50.25;100541.64;108101;1279;71871;-79
2022/09/07 11:25:04;;;;;;;4.20;3.10;;;;;;;28.60;49.69;100540.51;108265;1279;75431;-79
2022/09/07 11:28:00;;;;;;;4.20;3.50;;;;;;;28.69;48.67;100536.97;108322;1278;61571;-79
2022/09/07 11:30:31;;;;;;;4.30;3.10;;;;;;;28.68;48.14;100535.23;108371;1279;60347;-79
2022/09/07 11:33:12;;;;;;;5.60;3.70;;;;;;;28.72;48.28;100528.23;108462;1279;76247;-80
2022/09/07 11:35:46;;;;;;;4.80;2.80;;;;;;;28.97;48.60;100536.73;108305;1279;70007;-80
2022/09/07 11:38:22;;;;;;;3.30;2.50;;;;;;;29.02;47.40;100535.08;108226;1279;72772;-79